Time;durP1;ratioP1;P1;durP2;ratioP2;P2;SDS_P1;SDS_P2;PMS_P1;PMS_P2;Temp;Humidity;BMP_temperature;BMP_pressure;BME280_temperature;BME280_humidity;BME280_pressure;Samples;Min_cycle;Max_cycle;Signal;HPM_P1;HPM_P2
2023/12/16 01:20:09;;;;;;;58.27;27.57;;;3.70;99.90;;;;;;6131471;23;20434;-87
2023/12/16 03:38:19;;;;;;;63.83;24.93;;;3.80;99.90;;;;;;6034257;23;20549;-88
2023/12/16 04:04:11;;;;;;;60.03;22.10;;;4.10;99.90;;;;;;5934052;24;20180;-86
2023/12/16 04:29:15;;;;;;;57.70;23.37;;;4.10;99.90;;;;;;5913622;24;20306;-87
2023/12/16 04:59:57;;;;;;;55.73;21.73;;;4.20;99.90;;;;;;5996875;23;20166;-86
2023/12/16 05:25:30;;;;;;;53.70;20.53;;;4.20;99.90;;;;;;5942413;24;20161;-85
2023/12/16 05:55:47;;;;;;;55.33;22.40;;;4.30;99.90;;;;;;6074233;23;20435;-87
2023/12/16 06:25:56;;;;;;;55.00;22.70;;;4.40;99.90;;;;;;5921924;24;20179;-86
2023/12/16 07:52:15;;;;;;;51.57;20.33;;;4.90;99.90;;;;;;6118079;23;20314;-85
2023/12/16 08:22:43;;;;;;;51.40;21.93;;;5.10;99.90;;;;;;5973820;23;20194;-86
2023/12/16 10:03:51;;;;;;;24.00;12.50;;;6.40;99.90;;;;;;6116795;23;20291;-84
2023/12/16 10:34:14;;;;;;;23.27;12.60;;;6.50;99.90;;;;;;6024992;23;20849;-84
2023/12/16 11:04:25;;;;;;;26.00;13.73;;;6.80;99.90;;;;;;5858838;24;20396;-88
2023/12/16 11:30:21;;;;;;;31.23;15.90;;;6.80;99.90;;;;;;5741995;24;20276;-85
2023/12/16 11:55:33;;;;;;;25.30;15.47;;;6.80;99.90;;;;;;5806401;24;20213;-86
2023/12/16 12:15:46;;;;;;;29.50;14.23;;;6.80;99.90;;;;;;5697973;25;20304;-86
2023/12/16 12:46:29;;;;;;;23.37;13.87;;;6.90;99.90;;;;;;5795013;24;20198;-88
2023/12/16 12:51:02;;;;;;;25.63;15.00;;;7.00;99.90;;;;;;5822275;24;20573;-87
2023/12/16 13:16:35;;;;;;;23.83;15.07;;;6.80;99.90;;;;;;5822069;24;20281;-83
2023/12/16 14:12:10;;;;;;;29.07;17.13;;;6.50;99.90;;;;;;6008698;23;20446;-85
2023/12/16 14:42:18;;;;;;;26.90;16.00;;;6.60;99.90;;;;;;5827500;24;20901;-84
2023/12/16 15:12:40;;;;;;;24.30;15.63;;;6.80;99.90;;;;;;6037696;23;20176;-86
2023/12/16 15:33:42;;;;;;;26.47;15.43;;;6.80;99.90;;;;;;5762017;24;20438;-87
2023/12/16 15:38:03;;;;;;;24.20;15.93;;;6.80;99.90;;;;;;5747904;24;20470;-89
2023/12/16 16:24:19;;;;;;;25.93;15.53;;;6.80;99.90;;;;;;6107223;23;20190;-85
2023/12/16 16:49:25;;;;;;;28.83;17.30;;;6.70;99.90;;;;;;5963847;23;20184;-83
2023/12/16 17:09:59;;;;;;;30.53;18.00;;;6.70;99.90;;;;;;5731225;24;20405;-86
2023/12/16 17:40:19;;;;;;;30.33;19.20;;;6.90;99.90;;;;;;5818156;23;20273;-85
2023/12/16 18:00:11;;;;;;;36.73;20.13;;;7.00;99.90;;;;;;5866810;24;20485;-87
2023/12/16 18:35:34;;;;;;;28.67;18.33;;;7.30;99.90;;;;;;5961267;23;20257;-87
2023/12/16 19:01:25;;;;;;;25.90;15.63;;;7.20;99.90;;;;;;5818877;24;20187;-87
2023/12/16 19:41:33;;;;;;;20.70;12.37;;;7.10;99.90;;;;;;5877994;24;20191;-89
2023/12/16 20:27:37;;;;;;;17.00;9.30;;;7.10;99.90;;;;;;5887341;24;20244;-85
2023/12/16 20:42:55;;;;;;;17.00;9.37;;;7.10;99.90;;;;;;6045654;23;20210;-86
2023/12/16 21:13:16;;;;;;;19.93;10.07;;;6.90;99.90;;;;;;6014470;23;20281;-83
2023/12/16 21:28:36;;;;;;;15.63;11.33;;;6.50;99.90;;;;;;6032741;23;20180;-86
2023/12/16 21:54:07;;;;;;;23.80;14.57;;;6.00;99.90;;;;;;5931675;23;20348;-87
2023/12/16 21:58:26;;;;;;;22.40;14.80;;;6.10;99.90;;;;;;5866590;24;20502;-84
2023/12/16 22:24:17;;;;;;;26.00;16.73;;;5.90;99.90;;;;;;5913367;24;20316;-88
2023/12/16 23:25:16;;;;;;;22.07;15.10;;;6.10;99.90;;;;;;5801484;24;20195;-86
2023/12/16 23:45:38;;;;;;;21.07;14.80;;;6.10;99.90;;;;;;5751194;24;20277;-86
